createdAt,value
2023-03-22T00:02:49.891Z,92700.00
2023-03-22T00:06:50.077Z,92696.00
2023-03-22T00:10:50.102Z,92696.00
2023-03-22T00:14:50.255Z,92696.00
2023-03-22T00:18:50.376Z,92691.00
2023-03-22T00:22:50.515Z,92693.00
2023-03-22T00:26:50.830Z,92693.00
2023-03-22T00:30:50.806Z,92693.00
2023-03-22T00:34:50.965Z,92696.00
2023-03-22T00:38:51.102Z,92694.00
2023-03-22T00:42:51.255Z,92696.00
2023-03-22T00:46:51.410Z,92696.00
2023-03-22T00:50:51.572Z,92696.00
2023-03-22T00:54:51.482Z,92689.00
2023-03-22T00:58:51.386Z,92683.00
2023-03-22T01:02:51.271Z,92679.00
2023-03-22T01:06:51.175Z,92673.00
2023-03-22T01:10:51.077Z,92671.00
2023-03-22T01:14:51.034Z,92671.00
2023-03-22T01:18:50.886Z,92667.00
2023-03-22T01:22:51.221Z,92667.00
2023-03-22T01:26:50.687Z,92671.00
2023-03-22T01:30:50.592Z,92669.00
2023-03-22T01:34:50.458Z,92665.00
2023-03-22T01:38:50.419Z,92657.00
2023-03-22T01:42:50.498Z,92657.00
2023-03-22T01:46:50.405Z,92657.00
2023-03-22T01:50:50.291Z,92657.00
2023-03-22T01:54:50.255Z,92657.00
2023-03-22T01:58:50.049Z,92653.00
2023-03-22T02:02:49.945Z,92659.00
2023-03-22T02:06:49.813Z,92657.00
2023-03-22T02:10:49.714Z,92669.00
2023-03-22T02:14:49.604Z,92673.00
2023-03-22T02:18:49.509Z,92681.00
2023-03-22T02:22:49.407Z,92673.00
2023-03-22T02:26:49.295Z,92665.00
2023-03-22T02:30:49.230Z,92659.00
2023-03-22T02:34:49.226Z,92647.00
2023-03-22T02:38:49.126Z,92646.00
2023-03-22T02:42:49.015Z,92646.00
2023-03-22T02:46:48.926Z,92642.00
2023-03-22T02:50:48.795Z,92649.00
2023-03-22T02:54:48.695Z,92651.00
2023-03-22T02:58:48.559Z,92651.00
2023-03-22T03:02:48.756Z,92651.00
2023-03-22T03:06:48.332Z,92651.00
2023-03-22T03:10:48.743Z,92646.00
2023-03-22T03:14:48.055Z,92647.00
2023-03-22T03:18:48.126Z,92646.00
2023-03-22T03:22:48.245Z,92644.00
2023-03-22T03:26:48.358Z,92640.00
2023-03-22T03:30:48.462Z,92636.00
2023-03-22T03:34:48.573Z,92638.00
2023-03-22T03:38:48.686Z,92640.00
2023-03-22T03:42:48.804Z,92640.00
2023-03-22T03:46:48.922Z,92644.00
2023-03-22T03:50:49.048Z,92644.00
2023-03-22T03:54:49.169Z,92647.00
2023-03-22T03:58:49.772Z,92644.00
2023-03-22T04:02:49.403Z,92646.00
2023-03-22T04:06:49.496Z,92644.00
2023-03-22T04:10:49.374Z,92647.00
2023-03-22T04:14:49.237Z,92646.00
2023-03-22T04:18:49.121Z,92646.00
2023-03-22T04:22:48.982Z,92649.00
2023-03-22T04:26:48.851Z,92653.00
2023-03-22T04:30:48.733Z,92653.00
2023-03-22T04:34:48.605Z,92653.00
2023-03-22T04:38:48.482Z,92653.00
2023-03-22T04:42:48.369Z,92657.00
2023-03-22T04:46:48.255Z,92657.00
2023-03-22T04:50:48.278Z,92661.00
2023-03-22T04:54:48.419Z,92659.00
2023-03-22T04:58:48.550Z,92663.00
2023-03-22T05:02:48.484Z,92661.00
2023-03-22T05:06:48.791Z,92665.00
2023-03-22T05:10:48.153Z,92669.00
2023-03-22T05:14:48.036Z,92667.00
2023-03-22T05:18:47.870Z,92667.00
2023-03-22T05:22:47.738Z,92667.00
2023-03-22T05:26:47.590Z,92667.00
2023-03-22T05:30:47.460Z,92669.00
2023-03-22T05:34:47.331Z,92673.00
2023-03-22T05:38:47.341Z,92671.00
2023-03-22T05:42:47.366Z,92671.00
2023-03-22T05:46:47.426Z,92671.00
2023-03-22T05:50:47.471Z,92669.00
2023-03-22T05:54:47.524Z,92673.00
2023-03-22T05:58:47.638Z,92673.00
2023-03-22T06:02:47.864Z,92677.00
2023-03-22T06:06:47.907Z,92673.00
2023-03-22T06:10:48.005Z,92671.00
2023-03-22T06:14:48.123Z,92675.00
2023-03-22T06:18:48.243Z,92675.00
2023-03-22T06:22:48.394Z,92679.00
2023-03-22T06:26:48.508Z,92677.00
2023-03-22T06:30:48.650Z,92675.00
2023-03-22T06:34:48.699Z,92677.00
2023-03-22T06:38:48.800Z,92679.00
2023-03-22T06:42:48.907Z,92677.00
2023-03-22T06:46:49.016Z,92677.00
2023-03-22T06:50:49.129Z,92681.00
2023-03-22T06:54:49.212Z,92679.00
2023-03-22T06:58:49.353Z,92681.00
2023-03-22T07:02:51.517Z,92675.00
2023-03-22T07:06:49.289Z,92677.00
2023-03-22T07:10:49.180Z,92677.00
2023-03-22T07:14:49.052Z,92679.00
2023-03-22T07:18:48.921Z,92675.00
2023-03-22T07:22:48.804Z,92675.00
2023-03-22T07:26:48.702Z,92675.00
2023-03-22T07:30:48.589Z,92671.00
2023-03-22T07:34:48.859Z,92667.00
2023-03-22T07:38:48.367Z,92659.00
2023-03-22T07:42:48.278Z,92651.00
2023-03-22T07:46:48.425Z,92651.00
2023-03-22T07:50:48.025Z,92651.00
2023-03-22T07:54:48.050Z,92655.00
2023-03-22T07:58:48.234Z,92653.00
2023-03-22T08:02:48.251Z,92646.00
2023-03-22T08:06:48.291Z,92651.00
2023-03-22T08:10:48.377Z,92647.00
2023-03-22T08:14:48.460Z,92642.00
2023-03-22T08:18:49.292Z,92638.00
2023-03-22T08:22:48.632Z,92636.00
2023-03-22T08:26:48.713Z,92632.00
2023-03-22T08:30:48.789Z,92630.00
2023-03-22T08:34:48.849Z,92624.00
2023-03-22T08:38:48.893Z,92616.00
2023-03-22T08:42:48.947Z,92608.00
2023-03-22T08:46:48.994Z,92604.00
2023-03-22T08:50:49.041Z,92602.00
2023-03-22T08:54:49.091Z,92596.00
2023-03-22T08:58:49.118Z,92594.00
2023-03-22T09:02:49.149Z,92589.00
2023-03-22T09:06:49.152Z,92583.00
2023-03-22T09:10:49.175Z,92563.00
2023-03-22T09:14:49.206Z,92559.00
2023-03-22T09:18:49.229Z,92556.00
2023-03-22T09:22:49.265Z,92548.00
2023-03-22T09:26:50.807Z,92540.00
2023-03-22T09:30:49.298Z,92534.00
2023-03-22T09:34:49.282Z,92524.00
2023-03-22T09:38:49.367Z,92516.00
2023-03-22T09:42:49.304Z,92512.00
2023-03-22T09:46:49.321Z,92501.00
2023-03-22T09:50:49.400Z,92493.00
2023-03-22T09:54:52.218Z,92485.00
2023-03-22T09:58:49.276Z,92477.00
2023-03-22T10:02:49.085Z,92467.00
2023-03-22T10:06:48.982Z,92461.00
2023-03-22T10:10:48.780Z,92456.00
2023-03-22T10:14:48.646Z,92450.00
2023-03-22T10:18:48.526Z,92446.00
2023-03-22T10:22:48.402Z,92444.00
2023-03-22T10:26:48.238Z,92438.00
2023-03-22T10:30:48.077Z,92430.00
2023-03-22T10:34:47.935Z,92428.00
2023-03-22T10:38:47.867Z,92420.00
2023-03-22T10:42:47.634Z,92418.00
2023-03-22T10:46:47.540Z,92410.00
2023-03-22T10:50:47.247Z,92403.00
2023-03-22T10:54:47.170Z,92397.00
2023-03-22T10:58:47.112Z,92387.00
2023-03-22T11:02:47.061Z,92383.00
2023-03-22T11:06:46.974Z,92379.00
2023-03-22T11:10:46.952Z,92369.00
2023-03-22T11:14:46.877Z,92359.00
2023-03-22T11:18:46.903Z,92352.00
2023-03-22T11:22:46.757Z,92344.00
2023-03-22T11:26:46.737Z,92338.00
2023-03-22T11:30:46.692Z,92334.00
2023-03-22T11:34:46.659Z,92326.00
2023-03-22T11:38:48.262Z,92324.00
2023-03-22T11:42:46.600Z,92322.00
2023-03-22T11:46:46.565Z,92307.00
2023-03-22T11:50:46.511Z,92301.00
2023-03-22T11:54:46.479Z,92293.00
2023-03-22T11:58:46.416Z,92287.00
2023-03-22T12:02:46.616Z,92283.00
2023-03-22T12:06:46.320Z,92275.00
2023-03-22T12:10:46.269Z,92262.00
2023-03-22T12:14:46.217Z,92258.00
2023-03-22T12:18:46.166Z,92254.00
2023-03-22T12:22:46.128Z,92248.00
2023-03-22T12:26:46.070Z,92240.00
2023-03-22T12:30:46.063Z,92236.00
2023-03-22T12:34:45.940Z,92228.00
2023-03-22T12:38:45.874Z,92220.00
2023-03-22T12:42:51.693Z,92215.00
2023-03-22T12:46:46.750Z,92211.00
2023-03-22T12:50:45.516Z,92205.00
2023-03-22T12:54:45.390Z,92195.00
2023-03-22T12:58:45.459Z,92185.00
2023-03-22T13:02:45.163Z,92179.00
2023-03-22T13:06:44.986Z,92173.00
2023-03-22T13:10:44.843Z,92168.00
2023-03-22T13:14:44.739Z,92164.00
2023-03-22T13:18:44.689Z,92158.00
2023-03-22T13:22:44.635Z,92154.00
2023-03-22T13:26:44.565Z,92144.00
2023-03-22T13:30:44.499Z,92140.00
2023-03-22T13:34:44.427Z,92134.00
2023-03-22T13:38:44.335Z,92130.00
2023-03-22T13:42:44.281Z,92120.00
2023-03-22T13:46:44.259Z,92120.00
2023-03-22T13:50:44.147Z,92117.00
2023-03-22T13:54:44.086Z,92111.00
2023-03-22T13:58:44.012Z,92113.00
2023-03-22T14:02:44.044Z,92109.00
2023-03-22T14:06:43.882Z,92105.00
2023-03-22T14:10:44.140Z,92097.00
2023-03-22T14:14:44.005Z,92099.00
2023-03-22T14:18:51.243Z,92099.00
2023-03-22T14:47:44.261Z,92077.00
2023-03-22T14:51:44.293Z,92075.00
2023-03-22T14:55:44.339Z,92073.00
2023-03-22T14:59:44.398Z,92071.00
2023-03-22T15:03:44.451Z,92070.00
2023-03-22T15:07:44.511Z,92068.00
2023-03-22T15:11:44.572Z,92068.00
2023-03-22T15:15:44.616Z,92066.00
2023-03-22T15:19:44.645Z,92068.00
2023-03-22T15:23:44.955Z,92070.00
2023-03-22T15:27:45.095Z,92066.00
2023-03-22T15:31:45.111Z,92070.00
2023-03-22T15:35:45.458Z,92068.00
2023-03-22T15:39:45.201Z,92068.00
2023-03-22T15:43:45.266Z,92070.00
2023-03-22T15:47:45.326Z,92073.00
2023-03-22T15:51:45.413Z,92075.00
2023-03-22T15:55:45.442Z,92077.00
2023-03-22T15:59:45.485Z,92081.00
2023-03-22T16:03:45.621Z,92083.00
2023-03-22T16:07:45.598Z,92085.00
2023-03-22T16:11:45.640Z,92083.00
2023-03-22T16:15:45.701Z,92087.00
2023-03-22T16:19:45.738Z,92091.00
2023-03-22T16:23:45.787Z,92093.00
2023-03-22T16:27:45.846Z,92101.00
2023-03-22T16:31:51.087Z,92103.00
2023-03-22T16:35:47.002Z,92111.00
2023-03-22T16:39:46.013Z,92115.00
2023-03-22T16:43:46.071Z,92118.00
2023-03-22T16:47:46.142Z,92124.00
2023-03-22T16:51:46.203Z,92130.00
2023-03-22T16:55:46.252Z,92134.00
2023-03-22T16:59:46.329Z,92134.00
2023-03-22T17:03:46.367Z,92136.00
2023-03-22T17:07:46.421Z,92140.00
2023-03-22T17:11:46.482Z,92144.00
2023-03-22T17:15:46.547Z,92150.00
2023-03-22T17:19:46.596Z,92154.00
2023-03-22T17:23:46.652Z,92160.00
2023-03-22T17:27:46.716Z,92168.00
2023-03-22T17:31:53.707Z,92172.00
2023-03-22T17:35:47.890Z,92177.00
2023-03-22T17:40:27.979Z,92187.00
2023-03-22T17:43:48.035Z,92199.00
2023-03-22T17:47:49.341Z,92203.00
2023-03-22T17:51:47.224Z,92217.00
2023-03-22T17:59:47.421Z,92228.00
2023-03-22T18:03:47.483Z,92244.00
2023-03-22T18:07:58.883Z,92254.00
2023-03-22T18:11:48.626Z,92264.00
2023-03-22T18:15:47.701Z,92274.00
2023-03-22T18:20:07.341Z,92285.00
2023-03-22T18:23:48.862Z,92297.00
2023-03-22T18:27:47.947Z,92299.00
2023-03-22T18:31:48.013Z,92305.00
2023-03-22T18:35:48.107Z,92320.00
2023-03-22T18:43:49.216Z,92334.00
2023-03-22T18:47:48.271Z,92344.00
2023-03-22T18:55:54.258Z,92354.00
2023-03-22T18:59:50.727Z,92363.00
2023-03-22T19:03:48.589Z,92363.00
2023-03-22T19:08:02.243Z,92365.00
2023-03-22T19:11:49.781Z,92367.00
2023-03-22T19:15:50.627Z,92373.00
2023-03-22T19:19:48.979Z,92375.00
2023-03-22T19:23:49.096Z,92379.00
2023-03-22T19:31:49.311Z,92387.00
2023-03-22T19:35:49.415Z,92393.00
2023-03-22T19:39:52.409Z,92397.00
2023-03-22T19:43:50.632Z,92399.00
2023-03-22T19:48:02.264Z,92405.00
2023-03-22T19:51:50.869Z,92410.00
2023-03-22T19:55:49.973Z,92414.00
2023-03-22T20:00:11.987Z,92418.00
2023-03-22T20:03:51.191Z,92418.00
2023-03-22T20:07:50.283Z,92420.00
2023-03-22T20:11:50.383Z,92428.00
2023-03-22T20:15:50.493Z,92422.00
2023-03-22T20:19:50.584Z,92424.00
2023-03-22T20:23:50.678Z,92430.00
2023-03-22T20:27:57.969Z,92434.00
2023-03-22T20:31:51.112Z,92438.00
2023-03-22T20:35:51.244Z,92442.00
2023-03-22T20:39:51.323Z,92442.00
2023-03-22T20:43:51.422Z,92444.00
2023-03-22T20:47:51.487Z,92446.00
2023-03-22T20:51:51.592Z,92450.00
2023-03-22T20:55:51.676Z,92450.00
2023-03-22T20:59:51.765Z,92454.00
2023-03-22T21:03:51.854Z,92456.00
2023-03-22T21:07:51.952Z,92461.00
2023-03-22T21:11:52.042Z,92467.00
2023-03-22T21:15:52.108Z,92465.00
2023-03-22T21:19:52.225Z,92469.00
2023-03-22T21:23:52.388Z,92469.00
2023-03-22T21:27:52.799Z,92475.00
2023-03-22T21:31:52.704Z,92473.00
2023-03-22T21:35:52.860Z,92477.00
2023-03-22T21:39:53.048Z,92483.00
2023-03-22T21:43:53.214Z,92481.00
2023-03-22T21:47:53.384Z,92479.00
2023-03-22T21:51:53.545Z,92483.00
2023-03-22T21:55:53.710Z,92481.00
2023-03-22T21:59:53.905Z,92481.00
2023-03-22T22:03:54.086Z,92485.00
2023-03-22T22:07:54.296Z,92491.00
2023-03-22T22:11:54.505Z,92489.00
2023-03-22T22:15:54.716Z,92489.00
2023-03-22T22:19:54.918Z,92487.00
2023-03-22T22:23:55.123Z,92485.00
2023-03-22T22:27:55.314Z,92487.00
2023-03-22T22:31:55.504Z,92491.00
2023-03-22T22:35:55.723Z,92489.00
2023-03-22T22:39:55.902Z,92491.00
2023-03-22T22:43:56.105Z,92491.00
2023-03-22T22:47:56.312Z,92489.00
2023-03-22T22:51:56.519Z,92485.00
2023-03-22T22:55:57.587Z,92485.00
2023-03-22T22:59:56.941Z,92489.00
2023-03-22T23:03:57.155Z,92489.00
2023-03-22T23:07:57.337Z,92487.00
2023-03-22T23:11:57.537Z,92489.00
2023-03-22T23:15:57.730Z,92487.00
2023-03-22T23:19:57.943Z,92485.00
2023-03-22T23:23:58.134Z,92485.00
2023-03-22T23:27:58.316Z,92493.00
2023-03-22T23:31:58.514Z,92495.00
2023-03-22T23:35:58.730Z,92491.00
2023-03-22T23:39:58.892Z,92489.00
2023-03-22T23:43:59.077Z,92481.00
2023-03-22T23:47:59.252Z,92481.00
2023-03-22T23:51:59.435Z,92481.00
2023-03-22T23:55:59.605Z,92475.00
2023-03-22T23:59:59.803Z,92477.00
